createdAt,value
2023-02-23T00:01:37.088Z,33.53
2023-02-23T00:04:03.787Z,33.47
2023-02-23T00:06:30.782Z,34.10
2023-02-23T00:08:58.351Z,32.70
2023-02-23T00:11:24.886Z,30.77
2023-02-23T00:13:52.490Z,32.17
2023-02-23T00:16:22.858Z,31.03
2023-02-23T00:18:51.001Z,32.33
2023-02-23T00:21:18.996Z,28.97
2023-02-23T00:23:59.196Z,29.87
2023-02-23T00:26:26.667Z,29.50
2023-02-23T00:28:53.624Z,29.10
2023-02-23T00:31:26.012Z,28.30
2023-02-23T00:33:56.471Z,29.23
2023-02-23T00:36:23.638Z,30.50
2023-02-23T00:38:53.353Z,27.80
2023-02-23T00:41:23.195Z,29.77
2023-02-23T00:43:50.004Z,29.77
2023-02-23T00:46:17.506Z,29.10
2023-02-23T00:48:47.898Z,30.97
2023-02-23T00:51:14.478Z,29.70
2023-02-23T00:53:41.468Z,28.93
2023-02-23T00:56:08.670Z,29.50
2023-02-23T00:58:35.203Z,29.40
2023-02-23T01:01:01.926Z,29.70
2023-02-23T01:03:28.829Z,29.63
2023-02-23T01:05:59.352Z,30.93
2023-02-23T01:08:25.883Z,30.30
2023-02-23T01:10:52.761Z,31.57
2023-02-23T01:13:20.632Z,32.70
2023-02-23T01:15:48.266Z,30.33
2023-02-23T01:18:15.742Z,31.67
2023-02-23T01:20:42.551Z,31.30
2023-02-23T01:23:09.196Z,31.53
2023-02-23T01:25:35.796Z,30.73
2023-02-23T01:28:02.401Z,31.93
2023-02-23T01:30:29.582Z,33.07
2023-02-23T01:32:56.167Z,33.57
2023-02-23T01:35:22.671Z,32.10
2023-02-23T01:37:49.658Z,32.10
2023-02-23T01:40:30.647Z,34.20
2023-02-23T01:42:58.671Z,34.70
2023-02-23T01:45:34.766Z,32.60
2023-02-23T01:48:03.245Z,32.17
2023-02-23T01:50:31.218Z,33.63
2023-02-23T01:52:59.453Z,33.93
2023-02-23T01:55:26.150Z,33.83
2023-02-23T01:57:58.267Z,31.30
2023-02-23T02:00:26.232Z,29.47
2023-02-23T02:02:52.907Z,27.90
2023-02-23T02:05:19.693Z,28.47
2023-02-23T02:07:46.862Z,25.90
2023-02-23T02:10:13.393Z,29.03
2023-02-23T02:12:44.334Z,26.07
2023-02-23T02:15:20.025Z,28.13
2023-02-23T02:17:58.848Z,27.33
2023-02-23T02:20:38.451Z,25.97
2023-02-23T02:23:17.190Z,27.27
2023-02-23T02:25:46.314Z,25.37
2023-02-23T02:28:12.844Z,25.70
2023-02-23T02:30:58.233Z,24.40
2023-02-23T02:33:34.584Z,24.43
2023-02-23T02:36:19.467Z,25.57
2023-02-23T02:39:08.288Z,22.90
2023-02-23T02:41:37.323Z,22.47
2023-02-23T02:44:10.811Z,21.67
2023-02-23T02:46:38.276Z,21.17
2023-02-23T02:49:06.497Z,21.57
2023-02-23T02:51:37.127Z,18.83
2023-02-23T02:54:07.085Z,19.67
2023-02-23T02:56:40.769Z,19.53
2023-02-23T02:59:26.552Z,18.67
2023-02-23T03:02:12.069Z,19.47
2023-02-23T03:04:57.529Z,19.43
2023-02-23T03:07:45.176Z,19.00
2023-02-23T03:10:30.221Z,19.40
2023-02-23T03:13:15.635Z,20.27
2023-02-23T03:16:13.385Z,20.00
2023-02-23T03:19:01.463Z,19.70
2023-02-23T03:21:54.381Z,19.50
2023-02-23T03:24:39.552Z,19.20
2023-02-23T03:27:27.186Z,18.13
2023-02-23T03:30:14.009Z,19.07
2023-02-23T03:33:04.916Z,18.03
2023-02-23T03:35:52.650Z,18.03
2023-02-23T03:38:43.800Z,17.90
2023-02-23T03:41:29.388Z,17.13
2023-02-23T03:44:16.847Z,17.23
2023-02-23T03:47:01.972Z,15.80
2023-02-23T03:49:47.786Z,15.93
2023-02-23T03:52:34.028Z,17.33
2023-02-23T03:55:19.876Z,15.10
2023-02-23T03:58:05.840Z,15.00
2023-02-23T04:00:52.029Z,15.67
2023-02-23T04:03:37.454Z,14.53
2023-02-23T04:06:23.424Z,13.73
2023-02-23T04:09:08.950Z,14.37
2023-02-23T04:12:10.670Z,13.23
2023-02-23T04:14:42.170Z,13.47
2023-02-23T04:17:08.690Z,13.10
2023-02-23T04:19:36.190Z,13.47
2023-02-23T04:22:02.735Z,12.13
2023-02-23T04:24:29.238Z,13.47
2023-02-23T04:26:55.832Z,12.97
2023-02-23T04:29:22.469Z,14.33
2023-02-23T04:31:50.478Z,13.23
2023-02-23T04:34:17.050Z,12.70
2023-02-23T04:36:43.683Z,13.07
2023-02-23T04:39:10.218Z,14.60
2023-02-23T04:41:36.863Z,13.57
2023-02-23T04:44:05.471Z,12.47
2023-02-23T04:46:32.450Z,13.40
2023-02-23T04:48:59.288Z,12.73
2023-02-23T04:51:33.053Z,13.30
2023-02-23T04:53:59.847Z,12.27
2023-02-23T04:56:26.345Z,12.67
2023-02-23T04:58:53.547Z,13.53
2023-02-23T05:01:22.498Z,13.90
2023-02-23T05:03:49.503Z,14.03
2023-02-23T05:06:16.531Z,13.67
2023-02-23T05:08:43.088Z,14.43
2023-02-23T05:11:09.956Z,14.20
2023-02-23T05:13:36.504Z,14.00
2023-02-23T05:16:03.155Z,13.63
2023-02-23T05:18:31.684Z,13.33
2023-02-23T05:21:01.768Z,14.57
2023-02-23T05:23:28.316Z,14.47
2023-02-23T05:25:54.928Z,15.63
2023-02-23T05:28:22.208Z,15.50
2023-02-23T05:30:48.862Z,14.67
2023-02-23T05:33:18.192Z,14.50
2023-02-23T05:35:44.862Z,15.53
2023-02-23T05:38:11.391Z,15.03
2023-02-23T05:40:37.978Z,13.63
2023-02-23T05:43:04.504Z,15.33
2023-02-23T05:45:31.049Z,16.13
2023-02-23T05:47:57.787Z,15.47
2023-02-23T05:50:24.322Z,16.07
2023-02-23T05:52:50.920Z,15.97
2023-02-23T05:55:17.514Z,16.17
2023-02-23T05:57:45.627Z,16.80
2023-02-23T06:00:13.705Z,16.20
2023-02-23T06:02:41.837Z,16.07
2023-02-23T06:05:09.236Z,16.37
2023-02-23T06:07:35.741Z,15.60
2023-02-23T06:10:02.242Z,14.63
2023-02-23T06:12:28.790Z,16.17
2023-02-23T06:14:55.379Z,15.00
2023-02-23T06:17:22.004Z,16.47
2023-02-23T06:19:48.766Z,15.87
2023-02-23T06:22:17.643Z,16.57
2023-02-23T06:24:44.391Z,16.47
2023-02-23T06:27:10.964Z,16.33
2023-02-23T06:29:38.380Z,17.20
2023-02-23T06:32:05.218Z,16.93
2023-02-23T06:34:32.728Z,15.77
2023-02-23T06:36:59.262Z,15.60
2023-02-23T06:39:25.803Z,16.27
2023-02-23T06:41:52.441Z,16.50
2023-02-23T06:44:18.974Z,15.97
2023-02-23T06:46:45.556Z,15.93
2023-02-23T06:49:12.157Z,15.83
2023-02-23T06:51:38.681Z,16.57
2023-02-23T06:54:05.188Z,17.57
2023-02-23T06:56:31.722Z,17.13
2023-02-23T06:58:58.218Z,17.57
2023-02-23T07:01:25.417Z,15.80
2023-02-23T07:03:52.024Z,18.10
2023-02-23T07:06:18.567Z,16.73
2023-02-23T07:08:45.179Z,15.83
2023-02-23T07:11:13.377Z,16.33
2023-02-23T07:13:40.329Z,17.77
2023-02-23T07:16:07.196Z,18.37
2023-02-23T07:18:33.801Z,17.00
2023-02-23T07:21:00.280Z,17.73
2023-02-23T07:23:27.420Z,16.93
2023-02-23T07:25:56.685Z,16.60
2023-02-23T07:28:23.219Z,17.10
2023-02-23T07:30:52.812Z,18.27
2023-02-23T07:33:19.322Z,16.77
2023-02-23T07:35:45.851Z,20.20
2023-02-23T07:38:13.590Z,16.77
2023-02-23T07:40:42.357Z,18.00
2023-02-23T07:43:09.991Z,17.47
2023-02-23T07:45:36.581Z,18.80
2023-02-23T07:48:03.501Z,18.33
2023-02-23T07:50:30.039Z,19.80
2023-02-23T07:52:56.621Z,19.50
2023-02-23T07:55:23.171Z,18.33
2023-02-23T07:57:49.758Z,19.37
2023-02-23T08:00:17.895Z,17.97
2023-02-23T08:02:44.647Z,17.63
2023-02-23T08:05:11.188Z,17.67
2023-02-23T08:07:37.752Z,17.83
2023-02-23T08:10:04.404Z,17.67
2023-02-23T08:12:33.404Z,19.10
2023-02-23T08:14:59.923Z,16.80
2023-02-23T08:17:26.553Z,18.77
2023-02-23T08:19:53.055Z,18.57
2023-02-23T08:22:21.691Z,16.93
2023-02-23T08:24:48.293Z,18.00
2023-02-23T08:27:14.911Z,18.57
2023-02-23T08:29:41.383Z,18.13
2023-02-23T08:32:07.987Z,17.20
2023-02-23T08:34:37.818Z,17.47
2023-02-23T08:37:04.390Z,18.47
2023-02-23T08:39:31.123Z,17.47
2023-02-23T08:41:57.660Z,18.40
2023-02-23T08:44:24.254Z,17.70
2023-02-23T08:46:50.995Z,16.70
2023-02-23T08:49:17.679Z,17.30
2023-02-23T08:51:47.103Z,16.03
2023-02-23T08:54:14.742Z,16.07
2023-02-23T08:56:41.571Z,17.00
2023-02-23T08:59:08.325Z,17.80
2023-02-23T09:01:35.103Z,15.87
2023-02-23T09:04:01.702Z,16.17
2023-02-23T09:06:28.333Z,16.70
2023-02-23T09:08:55.508Z,17.73
2023-02-23T09:11:22.863Z,16.33
2023-02-23T09:13:49.580Z,16.27
2023-02-23T09:16:16.370Z,16.97
2023-02-23T09:18:42.972Z,16.43
2023-02-23T09:21:19.151Z,15.63
2023-02-23T09:23:48.341Z,16.63
2023-02-23T09:26:15.367Z,15.47
2023-02-23T09:28:41.988Z,16.50
2023-02-23T09:31:09.147Z,17.53
2023-02-23T09:33:36.067Z,17.10
2023-02-23T09:36:07.493Z,17.10
2023-02-23T09:38:34.044Z,17.17
2023-02-23T09:41:00.605Z,17.93
2023-02-23T09:43:27.097Z,17.40
2023-02-23T09:45:56.001Z,17.27
2023-02-23T09:48:23.423Z,17.37
2023-02-23T09:50:56.880Z,18.23
2023-02-23T09:53:29.443Z,17.63
2023-02-23T09:55:56.320Z,17.63
2023-02-23T09:58:27.262Z,16.17
2023-02-23T10:00:56.799Z,16.40
2023-02-23T10:03:26.185Z,16.73
2023-02-23T10:05:54.259Z,16.20
2023-02-23T10:08:22.919Z,15.63
2023-02-23T10:10:51.120Z,15.57
2023-02-23T10:13:38.547Z,15.17
2023-02-23T10:16:23.841Z,16.43
2023-02-23T10:19:19.680Z,15.80
2023-02-23T10:21:48.158Z,16.30
2023-02-23T10:24:14.697Z,15.90
2023-02-23T10:26:47.384Z,16.27
2023-02-23T10:29:22.241Z,15.67
2023-02-23T10:31:49.853Z,14.03
2023-02-23T10:34:17.197Z,15.83
2023-02-23T10:36:53.059Z,15.13
2023-02-23T10:39:19.605Z,14.83
2023-02-23T10:41:46.227Z,14.03
2023-02-23T10:44:18.239Z,13.30
2023-02-23T10:46:44.888Z,14.90
2023-02-23T10:49:15.270Z,15.23
2023-02-23T10:51:41.808Z,15.50
2023-02-23T10:54:27.403Z,14.57
2023-02-23T10:56:54.664Z,13.87
2023-02-23T10:59:22.193Z,13.77
2023-02-23T11:02:01.438Z,14.67
2023-02-23T11:04:32.520Z,14.07
2023-02-23T11:07:18.609Z,12.53
2023-02-23T11:09:47.846Z,13.00
2023-02-23T11:12:33.460Z,12.43
2023-02-23T11:15:00.045Z,12.00
2023-02-23T11:17:33.728Z,12.60
2023-02-23T11:20:15.576Z,12.90
2023-02-23T11:22:42.111Z,11.30
2023-02-23T11:25:14.736Z,10.70
2023-02-23T11:27:42.294Z,10.20
2023-02-23T11:30:10.876Z,10.43
2023-02-23T11:32:43.365Z,10.30
2023-02-23T11:35:22.180Z,10.37
2023-02-23T11:37:49.115Z,8.83
2023-02-23T11:40:20.206Z,10.23
2023-02-23T11:42:53.641Z,9.20
2023-02-23T11:45:20.991Z,8.77
2023-02-23T11:47:49.688Z,9.80
2023-02-23T11:50:29.713Z,9.50
2023-02-23T11:53:02.334Z,9.23
2023-02-23T11:55:29.141Z,10.00
2023-02-23T11:58:08.422Z,9.50
2023-02-23T12:00:35.113Z,9.87
2023-02-23T12:03:01.859Z,9.97
2023-02-23T12:05:29.735Z,9.57
2023-02-23T12:08:10.951Z,9.13
2023-02-23T12:10:41.965Z,9.97
2023-02-23T12:13:08.542Z,9.07
2023-02-23T12:15:37.883Z,10.67
2023-02-23T12:18:10.764Z,10.03
2023-02-23T12:20:41.506Z,9.60
2023-02-23T12:23:10.284Z,9.60
2023-02-23T12:25:53.180Z,9.43
2023-02-23T12:28:22.916Z,9.80
2023-02-23T12:31:08.552Z,9.53
2023-02-23T12:33:37.418Z,10.33
2023-02-23T12:36:05.154Z,10.20
2023-02-23T12:38:40.693Z,10.40
2023-02-23T12:41:10.595Z,10.43
2023-02-23T12:43:49.486Z,10.00
2023-02-23T12:46:22.180Z,10.70
2023-02-23T12:49:01.965Z,10.73
2023-02-23T12:52:08.556Z,10.43
2023-02-23T12:54:35.496Z,10.40
2023-02-23T12:57:19.585Z,10.77
2023-02-23T12:59:52.272Z,11.30
2023-02-23T13:02:24.756Z,10.23
2023-02-23T13:05:02.532Z,9.23
2023-02-23T13:07:47.784Z,9.07
2023-02-23T13:10:20.448Z,9.60
2023-02-23T13:12:59.685Z,10.60
2023-02-23T13:15:35.440Z,10.20
2023-02-23T13:18:22.968Z,9.83
2023-02-23T13:21:01.929Z,10.57
2023-02-23T13:23:43.791Z,9.50
2023-02-23T13:26:20.314Z,9.70
2023-02-23T13:28:56.683Z,9.47
2023-02-23T13:31:25.077Z,9.83
2023-02-23T13:33:52.097Z,9.70
2023-02-23T13:36:19.814Z,9.63
2023-02-23T13:38:53.277Z,9.70
2023-02-23T13:41:39.569Z,9.83
2023-02-23T13:44:09.125Z,9.17
2023-02-23T13:46:37.405Z,9.37
2023-02-23T13:49:13.155Z,8.77
2023-02-23T13:51:41.527Z,9.23
2023-02-23T13:54:14.853Z,9.53
2023-02-23T13:56:44.519Z,8.97
2023-02-23T13:59:15.834Z,8.83
2023-02-23T14:01:46.006Z,9.07
2023-02-23T14:04:31.464Z,9.57
2023-02-23T14:07:01.166Z,10.00
2023-02-23T14:09:31.480Z,10.00
2023-02-23T14:12:07.298Z,10.37
2023-02-23T14:14:33.847Z,9.63
2023-02-23T14:17:15.675Z,10.63
2023-02-23T14:19:42.189Z,10.43
2023-02-23T14:22:22.053Z,10.03
2023-02-23T14:25:08.081Z,10.30
2023-02-23T14:27:41.845Z,9.27
2023-02-23T14:30:08.679Z,10.03
2023-02-23T14:32:39.074Z,10.70
2023-02-23T14:35:05.812Z,9.67
2023-02-23T14:37:34.616Z,9.70
2023-02-23T14:40:11.605Z,9.67
2023-02-23T14:42:38.334Z,9.50
2023-02-23T14:45:16.566Z,10.13
2023-02-23T14:47:45.058Z,10.87
2023-02-23T14:50:16.178Z,10.33
2023-02-23T14:52:42.803Z,10.17
2023-02-23T14:55:12.310Z,11.10
2023-02-23T14:57:39.967Z,13.67
2023-02-23T15:00:26.893Z,12.83
2023-02-23T15:02:57.729Z,12.90
2023-02-23T15:05:25.705Z,12.90
2023-02-23T15:07:52.227Z,12.73
2023-02-23T15:10:20.552Z,13.13
2023-02-23T15:12:47.151Z,13.07
2023-02-23T15:15:17.587Z,13.07
2023-02-23T15:17:45.129Z,12.63
2023-02-23T15:20:16.963Z,12.27
2023-02-23T15:22:43.843Z,13.40
2023-02-23T15:25:18.038Z,14.37
2023-02-23T15:27:45.433Z,14.53
2023-02-23T15:30:18.298Z,13.03
2023-02-23T15:32:44.954Z,13.57
2023-02-23T15:35:12.022Z,12.13
2023-02-23T15:40:15.792Z,13.90
2023-02-23T15:42:45.748Z,12.80
2023-02-23T15:45:35.742Z,14.03
2023-02-23T15:48:06.738Z,15.70
2023-02-23T15:50:40.809Z,16.70
2023-02-23T15:53:13.808Z,18.20
2023-02-23T15:55:41.958Z,18.33
2023-02-23T15:58:31.835Z,20.27
2023-02-23T16:01:00.030Z,18.47
2023-02-23T16:03:30.757Z,20.47
2023-02-23T16:06:01.145Z,18.23
2023-02-23T16:08:27.766Z,18.27
2023-02-23T16:10:57.581Z,19.23
2023-02-23T16:13:24.104Z,18.13
2023-02-23T16:15:50.748Z,17.90
2023-02-23T16:18:20.688Z,17.57
2023-02-23T16:20:56.142Z,16.23
2023-02-23T16:23:33.997Z,16.93
2023-02-23T16:26:12.453Z,17.53
2023-02-23T16:28:42.908Z,18.77
2023-02-23T16:31:13.922Z,21.87
2023-02-23T16:33:44.500Z,20.63
2023-02-23T16:36:11.030Z,20.43
2023-02-23T16:38:38.476Z,22.23
2023-02-23T16:41:05.588Z,22.80
2023-02-23T16:43:33.001Z,23.00
2023-02-23T16:45:59.882Z,23.27
2023-02-23T16:48:27.220Z,23.27
2023-02-23T16:50:54.868Z,24.40
2023-02-23T16:53:23.358Z,24.07
2023-02-23T16:55:52.130Z,25.87
2023-02-23T16:58:19.974Z,24.43
2023-02-23T17:00:46.602Z,23.03
2023-02-23T17:03:16.850Z,22.67
2023-02-23T17:05:43.590Z,21.30
2023-02-23T17:08:10.950Z,21.17
2023-02-23T17:10:37.842Z,20.33
2023-02-23T17:13:05.249Z,20.10
2023-02-23T17:15:33.541Z,22.30
2023-02-23T17:18:00.129Z,20.90
2023-02-23T17:20:27.268Z,21.87
2023-02-23T17:22:54.549Z,23.10
2023-02-23T17:25:26.624Z,22.97
2023-02-23T17:27:56.800Z,24.43
2023-02-23T17:30:23.406Z,25.47
2023-02-23T17:32:51.069Z,26.27
2023-02-23T17:35:17.795Z,26.17
2023-02-23T17:37:44.830Z,28.23
2023-02-23T17:40:14.082Z,25.40
2023-02-23T17:42:40.702Z,25.80
2023-02-23T17:45:07.382Z,26.00
2023-02-23T17:47:34.273Z,25.57
2023-02-23T17:50:00.893Z,25.77
2023-02-23T17:52:27.740Z,26.17
2023-02-23T17:54:54.847Z,25.27
2023-02-23T17:57:24.630Z,26.00
2023-02-23T17:59:51.580Z,26.47
2023-02-23T18:02:20.641Z,26.13
2023-02-23T18:04:47.783Z,28.47
2023-02-23T18:07:14.322Z,29.33
2023-02-23T18:09:40.930Z,28.60
2023-02-23T18:12:07.528Z,30.97
2023-02-23T18:14:34.101Z,32.03
2023-02-23T18:17:00.984Z,31.47
2023-02-23T18:19:28.138Z,31.40
2023-02-23T18:21:56.228Z,31.40
2023-02-23T18:24:27.745Z,31.03
2023-02-23T18:27:00.694Z,29.87
2023-02-23T18:29:28.863Z,30.97
2023-02-23T18:31:58.873Z,29.87
2023-02-23T18:34:25.962Z,29.53
2023-02-23T18:36:52.520Z,28.93
2023-02-23T18:39:19.086Z,28.30
2023-02-23T18:41:45.660Z,31.83
2023-02-23T18:44:14.737Z,32.37
2023-02-23T18:46:44.756Z,30.77
2023-02-23T18:49:15.289Z,30.70
2023-02-23T18:51:43.378Z,31.27
2023-02-23T18:54:11.888Z,32.37
2023-02-23T18:56:38.736Z,32.53
2023-02-23T18:59:05.298Z,35.13
2023-02-23T19:01:33.500Z,31.83
2023-02-23T19:04:01.452Z,31.57
2023-02-23T19:06:28.257Z,30.13
2023-02-23T19:08:56.464Z,32.00
2023-02-23T19:11:24.477Z,30.10
2023-02-23T19:14:00.651Z,31.23
2023-02-23T19:16:27.450Z,32.37
2023-02-23T19:18:54.102Z,33.57
2023-02-23T19:21:23.567Z,33.30
2023-02-23T19:23:53.921Z,33.63
2023-02-23T19:26:21.501Z,35.77
2023-02-23T19:28:48.342Z,35.67
2023-02-23T19:31:16.931Z,38.30
2023-02-23T19:33:43.588Z,37.53
2023-02-23T19:36:11.313Z,37.00
2023-02-23T19:38:39.247Z,37.63
2023-02-23T19:41:09.422Z,37.17
2023-02-23T19:43:35.955Z,36.23
2023-02-23T19:46:06.049Z,35.80
2023-02-23T19:48:32.610Z,33.50
2023-02-23T19:50:59.602Z,35.73
2023-02-23T19:53:28.058Z,34.17
2023-02-23T19:56:01.210Z,36.13
2023-02-23T19:58:27.809Z,35.80
2023-02-23T20:00:57.451Z,38.37
2023-02-23T20:03:28.633Z,36.10
2023-02-23T20:05:55.791Z,36.67
2023-02-23T20:08:25.853Z,34.97
2023-02-23T20:10:52.543Z,38.90
2023-02-23T20:13:19.333Z,38.40
2023-02-23T20:15:46.557Z,39.10
2023-02-23T20:18:16.369Z,40.37
2023-02-23T20:20:43.251Z,39.77
2023-02-23T20:23:09.870Z,38.77
2023-02-23T20:25:36.530Z,37.00
2023-02-23T20:28:03.770Z,37.77
2023-02-23T20:30:30.385Z,34.13
2023-02-23T20:32:57.426Z,35.90
2023-02-23T20:35:26.317Z,37.73
2023-02-23T20:37:53.601Z,37.00
2023-02-23T20:40:22.734Z,37.30
2023-02-23T20:42:49.885Z,35.57
2023-02-23T20:45:17.456Z,36.27
2023-02-23T20:47:45.853Z,35.13
2023-02-23T20:50:15.510Z,38.07
2023-02-23T20:52:42.165Z,37.80
2023-02-23T20:55:08.821Z,35.37
2023-02-23T20:57:35.536Z,36.37
2023-02-23T21:00:12.483Z,36.50
2023-02-23T21:02:39.178Z,34.63
2023-02-23T21:05:05.805Z,34.80
2023-02-23T21:07:32.348Z,34.57
2023-02-23T21:09:59.416Z,36.77
2023-02-23T21:12:25.947Z,39.43
2023-02-23T21:14:52.476Z,39.13
2023-02-23T21:17:19.117Z,39.07
2023-02-23T21:19:45.659Z,41.17
2023-02-23T21:22:13.671Z,38.37
2023-02-23T21:24:42.158Z,39.13
2023-02-23T21:27:14.690Z,38.37
2023-02-23T21:29:44.564Z,36.83
2023-02-23T21:32:14.067Z,36.97
2023-02-23T21:34:40.953Z,38.57
2023-02-23T21:37:07.560Z,40.47
2023-02-23T21:39:35.568Z,40.13
2023-02-23T21:42:02.204Z,42.83
2023-02-23T21:44:28.765Z,40.37
2023-02-23T21:46:55.547Z,39.07
2023-02-23T21:49:22.180Z,41.77
2023-02-23T21:51:48.889Z,37.67
2023-02-23T21:54:15.905Z,34.77
2023-02-23T21:56:42.444Z,34.17
2023-02-23T21:59:08.972Z,35.63
2023-02-23T22:01:36.620Z,33.30
2023-02-23T22:04:03.667Z,32.83
2023-02-23T22:06:38.994Z,33.13
2023-02-23T22:09:06.188Z,35.03
2023-02-23T22:11:36.277Z,35.00
2023-02-23T22:14:05.238Z,33.07
2023-02-23T22:16:32.796Z,32.40
2023-02-23T22:19:03.609Z,32.53
2023-02-23T22:21:33.967Z,31.20
2023-02-23T22:24:04.637Z,29.87
2023-02-23T22:26:36.105Z,32.17
2023-02-23T22:29:02.651Z,32.80
2023-02-23T22:31:30.881Z,32.73
2023-02-23T22:33:57.523Z,31.97
2023-02-23T22:36:24.077Z,31.90
2023-02-23T22:38:50.622Z,32.93
2023-02-23T22:41:17.283Z,31.93
2023-02-23T22:43:47.236Z,29.73
2023-02-23T22:46:14.263Z,29.67
2023-02-23T22:48:44.967Z,27.33
2023-02-23T22:51:12.291Z,28.53
2023-02-23T22:53:38.794Z,26.30
2023-02-23T22:56:05.621Z,25.73
2023-02-23T22:58:32.957Z,26.30
2023-02-23T23:01:03.905Z,26.00
2023-02-23T23:03:34.192Z,26.13
2023-02-23T23:06:02.819Z,24.77
2023-02-23T23:08:30.269Z,23.93
2023-02-23T23:11:00.677Z,25.50
2023-02-23T23:13:27.233Z,23.53
2023-02-23T23:15:57.731Z,22.40
2023-02-23T23:18:33.909Z,21.03
2023-02-23T23:21:03.558Z,20.13
2023-02-23T23:23:30.384Z,17.90
2023-02-23T23:25:56.908Z,17.67
2023-02-23T23:28:24.579Z,17.70
2023-02-23T23:30:52.296Z,17.90
2023-02-23T23:33:19.198Z,16.53
2023-02-23T23:35:45.666Z,15.87
2023-02-23T23:38:14.519Z,16.03
2023-02-23T23:40:47.045Z,15.20
2023-02-23T23:43:13.572Z,15.83
2023-02-23T23:45:40.621Z,15.67
2023-02-23T23:48:09.588Z,16.97
2023-02-23T23:50:36.319Z,14.53
2023-02-23T23:53:04.609Z,15.57
2023-02-23T23:55:31.697Z,14.67
2023-02-23T23:58:00.460Z,15.07
